Quick Links (Output Below):   Max & Min Temps   /   Climate Reports   /   Zone Forecasts
River Forecasts   /   Forestry Forecasts   /   Aviation Forecasts   /   Radars   /   Features

Terminal Aerodrome Forecast (Highfill)

Pick a Site:
Arkadelphia | El Dorado | Fayetteville | Fort Smith | Harrison | Highfill | Hot Springs | Jonesboro
Little Rock | Monticello | Mountain Home | Pine Bluff | Texarkana
 Forecast 

KXNA 232014Z 2320/2418 33016G25KT P6SM VCTS SCT040CB BKN090
     FM232100 33014KT P6SM VCTS SCT050CB SCT100
     FM240000 VRB04KT P6SM FEW250
     FM241400 09008KT P6SM FEW250=


 Latest METARs (Observations) 
How to Decode METARs
22Z KXNA 232153Z 35013KT 10SM CLR 29/19 A3004 RMK AO2 SLP156
         T02890189
         
21Z KXNA 232053Z 33008G18KT 10SM CLR 26/19 A3007 RMK AO2 PK WND
         33027/2021 PRESRR SLP167 60005 T02610194 58005
         
20Z KXNA 231953Z 32017G26KT 10SM FEW039 SCT095 22/21 A3009 RMK AO2 PK
         WND 31055/1855 TSB05E20RAB19E29 SLP176 P0005 T02220206
         
19Z KXNA 231853Z 32033G51KT 9SM SCT030 BKN039 BKN045 23/18 A3012 RMK
         AO2 PK WND 34051/1851 LTG DSNT SW-NW PRESRR SLP185 T02330183
         $
         
18Z KXNA 231753Z 32009KT 10SM FEW030 BKN037 34/24 A3008 RMK AO2 SLP169
         T03390244 10339 20239 58010
         
17Z KXNA 231653Z 32007KT 10SM SCT029 32/25 A3010 RMK AO2 SLP174
         T03220250
         
16Z KXNA 231553Z 27007KT 9SM CLR 32/25 A3010 RMK AO2 SLP176
         T03170250
         
15Z KXNA 231453Z 27008KT 9SM CLR 29/24 A3012 RMK AO2 SLP181 T02940244
         50000
         
14Z KXNA 231353Z 27005KT 7SM CLR 28/24 A3013 RMK AO2 SLP183
         T02780239
         
13Z KXNA 231253Z 26006KT 5SM BR BKN060 25/24 A3013 RMK AO2 SLP185
         T02500239
         
***** Today's Observations (Above) *****


Back to Main Page
http://www.srh.noaa.gov/lzk/qfcst.php

USA.gov is the U.S. government's official web portal to all federal, state and local government web resources and services.